Time;durP1;ratioP1;P1;durP2;ratioP2;P2;SDS_P1;SDS_P2;PMS_P1;PMS_P2;Temp;Humidity;BMP_temperature;BMP_pressure;BME280_temperature;BME280_humidity;BME280_pressure;Samples;Min_cycle;Max_cycle;Signal;HPM_P1;HPM_P2
2023/01/17 00:02:00;;;;;;;2.43;2.13;;;4.90;99.90;;;;;;5043056;28;20560;-70
2023/01/17 00:10:06;;;;;;;3.00;2.50;;;4.70;99.90;;;;;;5035168;28;20400;-70
2023/01/17 00:12:32;;;;;;;2.70;2.50;;;4.70;99.90;;;;;;5052883;28;20388;-71
2023/01/17 00:14:58;;;;;;;2.67;2.47;;;4.60;99.90;;;;;;5049393;28;20975;-71
2023/01/17 00:17:26;;;;;;;2.40;2.27;;;4.70;99.90;;;;;;5032942;28;20584;-71
2023/01/17 01:35:07;;;;;;;2.87;2.53;;;4.60;99.90;;;;;;5034209;28;20419;-74
2023/01/17 01:37:33;;;;;;;3.43;2.50;;;4.60;99.90;;;;;;5052137;28;20438;-73
2023/01/17 01:39:59;;;;;;;2.80;2.60;;;4.60;99.90;;;;;;5055653;28;20169;-73
2023/01/17 01:42:24;;;;;;;2.70;2.33;;;4.60;99.90;;;;;;5053844;28;20227;-74
2023/01/17 01:44:52;;;;;;;2.77;2.63;;;4.70;99.90;;;;;;5054612;28;20655;-73
2023/01/17 01:47:35;;;;;;;2.83;2.60;;;4.70;99.90;;;;;;5040761;28;20636;-76
2023/01/17 01:50:04;;;;;;;2.70;2.50;;;4.60;99.90;;;;;;5038941;28;20524;-77
2023/01/17 01:52:34;;;;;;;2.33;2.13;;;4.60;99.90;;;;;;5054295;28;20440;-73
2023/01/17 01:55:06;;;;;;;2.40;2.30;;;4.60;99.90;;;;;;5050695;28;20504;-73
2023/01/17 01:57:38;;;;;;;4.60;2.47;;;4.50;99.90;;;;;;5035281;28;20834;-73
2023/01/17 02:00:20;;;;;;;3.00;2.80;;;4.50;99.90;;;;;;5037861;28;20431;-74
2023/01/17 02:02:48;;;;;;;2.57;2.37;;;4.40;99.90;;;;;;5053973;28;20405;-74
2023/01/17 02:05:17;;;;;;;2.70;2.50;;;4.30;99.90;;;;;;5049058;28;20839;-74
2023/01/17 02:08:15;;;;;;;2.63;2.43;;;4.30;99.90;;;;;;5033942;28;20536;-77
2023/01/17 02:10:42;;;;;;;2.87;2.67;;;4.30;99.90;;;;;;5044035;28;20448;-74
2023/01/17 02:13:10;;;;;;;2.80;2.20;;;4.20;99.90;;;;;;5053629;28;20782;-75
2023/01/17 02:15:54;;;;;;;2.40;2.27;;;4.20;99.90;;;;;;5047693;28;20477;-74
2023/01/17 02:18:25;;;;;;;6.23;2.63;;;4.20;99.90;;;;;;5034046;28;20419;-74
2023/01/17 02:21:06;;;;;;;2.93;2.63;;;4.20;99.90;;;;;;5049607;28;20517;-74
2023/01/17 02:23:47;;;;;;;2.17;2.03;;;4.10;99.90;;;;;;5053503;28;20914;-77
2023/01/17 02:26:43;;;;;;;2.63;2.43;;;4.10;1.00;;;;;;5035552;28;20438;-77
2023/01/17 02:29:21;;;;;;;3.07;2.87;;;4.10;1.00;;;;;;5034351;28;20395;-74
2023/01/17 02:32:03;;;;;;;2.87;2.67;;;4.10;1.00;;;;;;5054523;28;20393;-78
2023/01/17 02:34:57;;;;;;;9.17;2.90;;;4.10;1.00;;;;;;5050799;28;20970;-78
2023/01/17 02:37:40;;;;;;;3.37;3.17;;;4.10;1.00;;;;;;5034549;28;20424;-78
2023/01/17 02:40:13;;;;;;;2.73;2.53;;;4.10;1.00;;;;;;5050202;28;20423;-74
2023/01/17 02:42:47;;;;;;;3.17;2.97;;;4.10;1.00;;;;;;5052815;28;20443;-74
2023/01/17 02:45:18;;;;;;;3.20;2.90;;;4.10;1.00;;;;;;5032916;28;20467;-75
2023/01/17 02:47:44;;;;;;;2.93;2.73;;;4.10;1.00;;;;;;5032983;28;20407;-75
2023/01/17 02:50:16;;;;;;;2.80;2.60;;;4.10;1.00;;;;;;5033563;28;20503;-75
2023/01/17 02:53:17;;;;;;;2.90;2.77;;;4.10;1.00;;;;;;5034214;28;20489;-75
2023/01/17 02:56:01;;;;;;;3.53;2.70;;;4.00;1.00;;;;;;5031463;28;20448;-79
2023/01/17 02:58:47;;;;;;;4.77;3.00;;;4.00;1.00;;;;;;5037929;28;21005;-76
2023/01/17 03:01:32;;;;;;;3.90;2.90;;;4.00;1.00;;;;;;5053909;28;20489;-76
2023/01/17 03:04:07;;;;;;;3.33;2.70;;;4.00;1.00;;;;;;5044714;28;20427;-75
2023/01/17 03:06:39;;;;;;;3.00;2.73;;;4.00;1.00;;;;;;5033400;28;20404;-80
2023/01/17 03:09:06;;;;;;;3.10;2.80;;;3.90;1.00;;;;;;5049184;28;20414;-79
2023/01/17 03:11:32;;;;;;;2.53;2.43;;;3.80;1.00;;;;;;5054053;28;20614;-79
2023/01/17 03:13:58;;;;;;;3.83;3.33;;;3.80;1.00;;;;;;5051620;28;20410;-76
2023/01/17 03:16:27;;;;;;;3.20;3.00;;;3.80;1.00;;;;;;5051716;28;20916;-79
2023/01/17 03:18:53;;;;;;;3.00;2.80;;;3.70;1.00;;;;;;5038305;28;20517;-75
2023/01/17 03:21:20;;;;;;;3.40;3.17;;;3.70;1.00;;;;;;5032354;28;20410;-75
2023/01/17 03:23:46;;;;;;;4.10;3.57;;;3.80;1.00;;;;;;5045282;28;20425;-78
2023/01/17 03:26:12;;;;;;;3.27;3.07;;;3.80;1.00;;;;;;5052738;28;20419;-75
2023/01/17 03:28:37;;;;;;;3.40;3.20;;;3.70;1.00;;;;;;5043235;28;20183;-80
2023/01/17 03:31:03;;;;;;;3.60;3.37;;;3.80;1.00;;;;;;5032722;28;20257;-76
2023/01/17 03:33:29;;;;;;;3.23;3.03;;;3.80;1.00;;;;;;5041718;28;20647;-79
2023/01/17 03:35:56;;;;;;;3.40;3.20;;;3.80;1.00;;;;;;5049022;28;20457;-75
2023/01/17 03:38:27;;;;;;;3.10;2.90;;;3.80;1.00;;;;;;5039528;28;20536;-77
2023/01/17 03:40:53;;;;;;;3.50;3.07;;;3.80;1.00;;;;;;5033456;28;20441;-78
2023/01/17 03:43:19;;;;;;;3.30;3.10;;;3.80;1.00;;;;;;5033457;28;20411;-78
2023/01/17 03:45:48;;;;;;;3.57;3.27;;;3.90;1.00;;;;;;5032356;28;20459;-77
2023/01/17 03:48:14;;;;;;;3.00;2.80;;;4.00;1.00;;;;;;5033287;28;20425;-75
2023/01/17 03:50:40;;;;;;;3.00;2.90;;;4.00;1.00;;;;;;5039344;28;20411;-78
2023/01/17 03:53:05;;;;;;;3.60;3.30;;;4.00;1.00;;;;;;5053195;28;20172;-76
2023/01/17 03:55:31;;;;;;;4.43;3.40;;;4.00;1.00;;;;;;5047781;28;20187;-75
2023/01/17 03:57:57;;;;;;;5.87;2.93;;;4.10;1.00;;;;;;5032649;28;20201;-76
2023/01/17 04:00:22;;;;;;;3.27;2.97;;;4.10;1.00;;;;;;5035317;28;20259;-76
2023/01/17 04:02:48;;;;;;;3.90;3.60;;;4.10;1.00;;;;;;5053137;28;20172;-78
2023/01/17 04:05:14;;;;;;;3.50;3.10;;;4.20;1.00;;;;;;5051177;28;20198;-78
2023/01/17 04:07:40;;;;;;;4.00;3.70;;;4.20;1.00;;;;;;5033203;28;20221;-78
2023/01/17 04:10:06;;;;;;;3.50;3.20;;;4.20;1.00;;;;;;5046616;28;20173;-75
2023/01/17 04:12:32;;;;;;;3.87;3.57;;;4.20;1.00;;;;;;5053069;28;20399;-75
2023/01/17 04:14:58;;;;;;;3.93;3.37;;;4.10;1.00;;;;;;5038746;28;20497;-78
2023/01/17 04:17:24;;;;;;;12.93;4.40;;;4.10;1.00;;;;;;5032296;28;20177;-75
2023/01/17 04:19:49;;;;;;;3.27;3.00;;;4.20;1.00;;;;;;5037609;28;20172;-75
2023/01/17 04:22:15;;;;;;;5.37;4.87;;;4.10;1.00;;;;;;5052911;28;20480;-77
2023/01/17 04:24:41;;;;;;;4.23;3.93;;;4.10;1.00;;;;;;5048190;28;20255;-77
2023/01/17 04:27:07;;;;;;;4.10;3.80;;;4.10;1.00;;;;;;5035810;28;20165;-75
2023/01/17 04:29:32;;;;;;;4.63;4.33;;;4.20;1.00;;;;;;5038234;28;20532;-78
2023/01/17 04:31:58;;;;;;;4.10;3.83;;;4.10;1.00;;;;;;5056912;28;20524;-75
2023/01/17 04:34:24;;;;;;;3.87;3.57;;;4.10;1.00;;;;;;5055718;28;20192;-78
2023/01/17 04:36:49;;;;;;;3.77;3.43;;;4.20;1.00;;;;;;5035207;28;20196;-78
2023/01/17 04:39:15;;;;;;;4.50;4.20;;;4.20;1.00;;;;;;5036870;28;20176;-78
2023/01/17 04:41:42;;;;;;;5.23;4.73;;;4.30;1.00;;;;;;5054329;28;20177;-75
2023/01/17 04:44:08;;;;;;;5.33;4.93;;;4.30;1.00;;;;;;5043260;28;20193;-73
2023/01/17 04:46:34;;;;;;;5.30;4.90;;;4.30;1.00;;;;;;5035044;28;20421;-78
2023/01/17 04:48:59;;;;;;;5.53;4.37;;;4.30;1.00;;;;;;5047561;28;20423;-73
2023/01/17 04:51:25;;;;;;;4.80;4.40;;;4.30;1.00;;;;;;5056596;28;20219;-79
2023/01/17 04:53:51;;;;;;;5.80;5.30;;;4.30;1.00;;;;;;5047008;28;20175;-79
2023/01/17 04:56:17;;;;;;;4.50;4.20;;;4.30;1.00;;;;;;5035172;28;20174;-75
2023/01/17 04:58:42;;;;;;;5.90;5.50;;;4.30;1.00;;;;;;5043462;28;20638;-74
2023/01/17 05:01:08;;;;;;;7.27;5.37;;;4.40;1.00;;;;;;5056363;28;20199;-75
2023/01/17 05:03:34;;;;;;;4.70;4.40;;;4.40;1.00;;;;;;5039672;28;20223;-77
2023/01/17 05:06:00;;;;;;;5.73;5.23;;;4.40;1.00;;;;;;5035218;28;20541;-75
2023/01/17 05:08:26;;;;;;;5.60;4.60;;;4.40;1.00;;;;;;5049487;28;20502;-75
2023/01/17 05:10:52;;;;;;;6.47;5.93;;;4.40;1.00;;;;;;5056175;28;20487;-75
2023/01/17 05:13:18;;;;;;;4.70;4.40;;;4.40;1.00;;;;;;5044086;28;20426;-75
2023/01/17 05:15:45;;;;;;;5.30;4.90;;;4.40;1.00;;;;;;5034833;28;20287;-76
2023/01/17 05:18:17;;;;;;;9.03;5.27;;;4.50;1.00;;;;;;5042026;28;20185;-77
2023/01/17 05:20:43;;;;;;;6.00;5.50;;;4.50;1.00;;;;;;5041233;28;20474;-75
2023/01/17 05:23:10;;;;;;;5.80;5.30;;;4.50;1.00;;;;;;5035994;28;20440;-77
2023/01/17 05:25:36;;;;;;;6.33;5.83;;;4.50;1.00;;;;;;5042807;28;20519;-75
2023/01/17 05:28:02;;;;;;;6.70;6.10;;;4.50;1.00;;;;;;5055898;28;20402;-76
2023/01/17 05:30:30;;;;;;;6.40;5.43;;;4.50;1.00;;;;;;5049298;28;20178;-75
2023/01/17 05:32:57;;;;;;;6.17;5.67;;;4.50;1.00;;;;;;5039720;28;20415;-76
2023/01/17 05:35:25;;;;;;;6.80;6.20;;;4.50;1.00;;;;;;5054653;28;20417;-75
2023/01/17 05:37:51;;;;;;;7.23;6.53;;;4.50;1.00;;;;;;5051826;28;20424;-75
2023/01/17 05:40:22;;;;;;;6.77;6.07;;;4.50;1.00;;;;;;5036009;28;20413;-76
2023/01/17 05:42:50;;;;;;;6.67;5.90;;;4.40;1.00;;;;;;5037796;28;20271;-76
2023/01/17 05:45:17;;;;;;;6.70;6.20;;;4.40;1.00;;;;;;5054147;28;20461;-75
2023/01/17 05:47:43;;;;;;;7.53;6.83;;;4.40;1.00;;;;;;5054422;28;20406;-76
2023/01/17 05:50:51;;;;;;;7.63;6.93;;;4.50;1.00;;;;;;5035021;28;20405;-77
2023/01/17 05:53:17;;;;;;;8.37;7.13;;;4.50;1.00;;;;;;5039967;28;20416;-76
2023/01/17 05:55:43;;;;;;;10.03;7.90;;;4.50;1.00;;;;;;5053144;28;20433;-75
2023/01/17 05:58:15;;;;;;;12.40;7.53;;;4.50;1.00;;;;;;5052095;28;20409;-75
2023/01/17 06:00:41;;;;;;;9.57;7.53;;;4.50;1.00;;;;;;5034163;28;20445;-76
2023/01/17 06:03:07;;;;;;;9.97;8.27;;;4.40;1.00;;;;;;5046878;28;20417;-76
2023/01/17 06:05:32;;;;;;;10.20;9.00;;;4.40;1.00;;;;;;5054127;28;21016;-75
2023/01/17 06:07:58;;;;;;;13.77;8.73;;;4.40;1.00;;;;;;5044092;28;20614;-75
2023/01/17 06:10:24;;;;;;;12.77;9.23;;;4.40;1.00;;;;;;5035135;28;20180;-77
2023/01/17 06:13:07;;;;;;;11.30;9.20;;;4.40;1.00;;;;;;5043328;28;20246;-75
2023/01/17 06:15:35;;;;;;;11.43;8.73;;;4.40;1.00;;;;;;5053999;28;20426;-75
2023/01/17 06:18:09;;;;;;;14.43;10.77;;;4.40;1.00;;;;;;5044374;28;20422;-74
2023/01/17 06:20:35;;;;;;;17.40;11.43;;;4.40;1.00;;;;;;5034984;28;20409;-75
2023/01/17 06:23:06;;;;;;;16.67;11.53;;;4.50;1.00;;;;;;5043242;28;20417;-75
2023/01/17 06:25:45;;;;;;;13.63;10.80;;;4.50;1.00;;;;;;5053793;28;20453;-75
2023/01/17 06:28:16;;;;;;;14.13;10.40;;;4.40;1.00;;;;;;5040793;28;20418;-76
2023/01/17 06:30:43;;;;;;;19.53;12.90;;;4.40;1.00;;;;;;5033776;28;20410;-77
2023/01/17 06:33:09;;;;;;;15.50;10.00;;;4.40;1.00;;;;;;5052413;28;20762;-75
2023/01/17 06:35:39;;;;;;;13.60;8.27;;;4.40;1.00;;;;;;5053464;28;20961;-74
2023/01/17 06:38:06;;;;;;;11.20;8.40;;;4.40;1.00;;;;;;5037419;28;20418;-75
2023/01/17 06:40:32;;;;;;;9.67;7.10;;;4.30;1.00;;;;;;5033655;28;20418;-76
2023/01/17 06:43:02;;;;;;;12.70;6.40;;;4.30;1.00;;;;;;5035710;28;20427;-76
2023/01/17 06:45:29;;;;;;;7.33;5.90;;;4.30;1.00;;;;;;5032861;28;20466;-78
2023/01/17 06:47:55;;;;;;;5.50;5.07;;;4.20;1.00;;;;;;5051265;28;20414;-79
2023/01/17 06:50:21;;;;;;;6.23;4.47;;;4.20;1.00;;;;;;5053851;28;20936;-78
2023/01/17 06:52:57;;;;;;;5.83;5.07;;;4.20;1.00;;;;;;5037605;28;20221;-76
2023/01/17 06:55:23;;;;;;;8.97;6.50;;;4.10;1.00;;;;;;5033347;28;20198;-76
2023/01/17 06:57:49;;;;;;;7.87;5.87;;;4.10;1.00;;;;;;5049207;28;20559;-76
2023/01/17 07:00:16;;;;;;;4.50;4.10;;;4.00;1.00;;;;;;5045953;28;20427;-75
2023/01/17 07:02:41;;;;;;;3.03;2.83;;;4.00;1.00;;;;;;5037504;28;20414;-75
2023/01/17 07:05:07;;;;;;;2.97;2.77;;;3.80;1.00;;;;;;5031959;28;20465;-76
2023/01/17 07:07:33;;;;;;;2.70;2.53;;;3.60;1.00;;;;;;5034006;28;20171;-75
2023/01/17 07:10:02;;;;;;;2.87;2.67;;;3.40;1.00;;;;;;5032811;28;20414;-74
2023/01/17 07:12:27;;;;;;;2.30;2.20;;;3.30;1.00;;;;;;5053112;28;20774;-74
2023/01/17 07:14:53;;;;;;;2.13;2.03;;;3.10;1.00;;;;;;5052984;28;20500;-77
2023/01/17 07:17:19;;;;;;;2.27;2.10;;;3.00;1.00;;;;;;5035727;28;20187;-76
2023/01/17 07:19:44;;;;;;;2.43;2.30;;;2.90;1.00;;;;;;5037324;28;20571;-75
2023/01/17 07:22:10;;;;;;;2.60;2.50;;;3.00;1.00;;;;;;5041091;28;20176;-76
2023/01/17 07:24:36;;;;;;;2.03;1.93;;;2.90;1.00;;;;;;5032721;28;20217;-76
2023/01/17 07:27:02;;;;;;;2.97;1.80;;;2.80;1.00;;;;;;5051268;28;20523;-72
2023/01/17 07:29:28;;;;;;;1.77;1.13;;;2.80;1.00;;;;;;5053480;28;20401;-72
2023/01/17 07:31:54;;;;;;;1.80;1.70;;;2.80;1.00;;;;;;5037092;28;20425;-76
2023/01/17 07:34:20;;;;;;;1.60;1.50;;;2.80;1.00;;;;;;5032624;28;20187;-75
2023/01/17 07:36:48;;;;;;;1.70;1.60;;;2.80;1.00;;;;;;5047867;28;20433;-72
2023/01/17 07:39:14;;;;;;;1.80;1.70;;;2.80;3.70;;;;;;5047640;28;20221;-73
2023/01/17 07:41:41;;;;;;;1.70;1.60;;;2.80;7.60;;;;;;5033029;28;20399;-77
2023/01/17 07:44:09;;;;;;;4.50;1.60;;;2.60;1.00;;;;;;5035512;28;20505;-76
2023/01/17 07:46:35;;;;;;;1.80;1.70;;;2.50;4.00;;;;;;5045530;28;20464;-74
2023/01/17 07:49:01;;;;;;;1.60;1.50;;;2.50;14.50;;;;;;5034652;28;20402;-74
2023/01/17 07:51:27;;;;;;;2.37;1.50;;;2.50;26.70;;;;;;5053365;28;20217;-77
2023/01/17 07:53:53;;;;;;;1.37;1.27;;;2.40;26.50;;;;;;5035584;28;20414;-78
2023/01/17 07:56:18;;;;;;;1.47;1.37;;;2.40;26.70;;;;;;5032341;28;20238;-78
2023/01/17 07:58:44;;;;;;;2.27;1.60;;;2.40;41.40;;;;;;5033083;28;20215;-74
2023/01/17 08:01:12;;;;;;;1.23;1.13;;;2.40;50.50;;;;;;5032947;28;20229;-78
2023/01/17 08:03:41;;;;;;;1.80;1.70;;;2.50;68.30;;;;;;5031987;28;20195;-74
2023/01/17 08:06:19;;;;;;;1.60;1.50;;;2.50;75.50;;;;;;5032353;28;20511;-76
2023/01/17 08:08:46;;;;;;;1.50;1.40;;;2.50;75.60;;;;;;5031887;28;20406;-74
2023/01/17 08:11:12;;;;;;;1.60;1.50;;;2.40;74.90;;;;;;5033121;28;20168;-77
2023/01/17 08:13:37;;;;;;;1.67;1.50;;;2.50;75.50;;;;;;5033176;28;20831;-76
2023/01/17 08:16:03;;;;;;;1.80;1.70;;;2.50;75.60;;;;;;5031824;28;20223;-75
2023/01/17 08:18:30;;;;;;;1.50;1.40;;;2.50;75.50;;;;;;5032909;28;20652;-71
2023/01/17 08:20:55;;;;;;;1.50;1.40;;;2.50;75.60;;;;;;5033013;28;20407;-71
2023/01/17 08:23:21;;;;;;;4.33;1.93;;;2.60;75.60;;;;;;5032975;28;20406;-72
2023/01/17 08:25:47;;;;;;;1.70;1.57;;;2.60;75.60;;;;;;5034436;28;20207;-73
2023/01/17 08:28:14;;;;;;;1.70;1.60;;;2.60;75.60;;;;;;5052705;28;20903;-73
2023/01/17 08:30:40;;;;;;;1.50;1.40;;;2.60;80.90;;;;;;5051036;28;20430;-73
2023/01/17 08:33:06;;;;;;;1.50;1.40;;;2.70;83.00;;;;;;5052714;28;20397;-75
2023/01/17 08:35:33;;;;;;;1.53;1.43;;;2.60;75.60;;;;;;5051453;28;20775;-72
2023/01/17 08:38:03;;;;;;;2.15;1.70;;;2.60;77.30;;;;;;5052573;28;20174;-75
2023/01/17 08:40:32;;;;;;;6.83;2.20;;;2.70;75.90;;;;;;5052554;28;20167;-76
2023/01/17 08:42:59;;;;;;;1.77;1.60;;;2.60;75.60;;;;;;5052722;28;20397;-75
2023/01/17 08:45:26;;;;;;;3.37;1.80;;;2.60;75.60;;;;;;5051871;28;20965;-73
2023/01/17 08:47:52;;;;;;;2.03;1.93;;;2.70;75.70;;;;;;5052798;28;20405;-74
2023/01/17 08:50:19;;;;;;;1.97;1.87;;;2.70;84.80;;;;;;5052666;28;20386;-72
2023/01/17 08:52:47;;;;;;;2.43;2.27;;;2.70;85.90;;;;;;5051898;28;20472;-71
2023/01/17 08:55:13;;;;;;;3.23;1.53;;;2.80;90.90;;;;;;5051899;28;20436;-74
2023/01/17 08:57:38;;;;;;;1.97;1.60;;;2.90;92.50;;;;;;5052624;28;20397;-71
2023/01/17 09:00:06;;;;;;;1.80;1.70;;;2.90;92.50;;;;;;5052530;28;20433;-72
2023/01/17 09:02:31;;;;;;;5.83;1.70;;;3.00;94.60;;;;;;5052497;28;20611;-74
2023/01/17 09:04:57;;;;;;;3.63;1.93;;;3.00;95.40;;;;;;5051737;28;20544;-72
2023/01/17 09:07:23;;;;;;;4.30;1.63;;;3.00;91.90;;;;;;5052421;28;20170;-72
2023/01/17 09:09:51;;;;;;;1.80;1.70;;;3.00;92.50;;;;;;5051798;28;20159;-74
2023/01/17 09:12:17;;;;;;;2.57;1.60;;;3.10;92.20;;;;;;5052537;28;20829;-74
2023/01/17 09:14:43;;;;;;;6.07;2.03;;;3.20;94.00;;;;;;5055346;28;20782;-73
2023/01/17 09:17:09;;;;;;;2.60;2.33;;;3.20;94.30;;;;;;5056266;28;20407;-72
2023/01/17 09:19:37;;;;;;;3.83;2.10;;;3.30;91.30;;;;;;5056091;28;20206;-74
2023/01/17 09:22:04;;;;;;;9.53;2.00;;;3.30;92.60;;;;;;5056003;28;20175;-73
2023/01/17 09:24:31;;;;;;;5.10;2.00;;;3.30;87.10;;;;;;5054061;28;20460;-72
2023/01/17 09:26:57;;;;;;;5.70;2.00;;;3.20;76.20;;;;;;5055521;28;20909;-72
2023/01/17 09:29:22;;;;;;;2.00;1.80;;;3.20;76.00;;;;;;5055839;28;20432;-72
2023/01/17 09:31:48;;;;;;;8.20;2.23;;;3.20;82.50;;;;;;5055996;28;20167;-73
2023/01/17 09:34:14;;;;;;;2.00;1.90;;;3.20;87.50;;;;;;5055571;28;20187;-74
2023/01/17 09:36:40;;;;;;;3.67;2.00;;;3.30;85.40;;;;;;5053884;28;20711;-73
2023/01/17 09:39:08;;;;;;;3.00;2.17;;;3.40;90.40;;;;;;5055718;28;20178;-72
2023/01/17 09:41:40;;;;;;;1.73;1.63;;;3.40;88.00;;;;;;5055691;28;20823;-73
2023/01/17 09:44:40;;;;;;;8.83;2.00;;;3.40;76.50;;;;;;5054167;28;20413;-75
2023/01/17 09:47:11;;;;;;;1.50;1.40;;;3.30;65.70;;;;;;5054962;28;20410;-73
2023/01/17 09:49:44;;;;;;;10.33;1.90;;;3.30;48.00;;;;;;5055536;28;20413;-74
2023/01/17 09:52:17;;;;;;;2.07;1.97;;;3.30;27.30;;;;;;5036683;28;20479;-72
2023/01/17 09:54:46;;;;;;;2.73;2.07;;;3.20;14.20;;;;;;5034866;28;20426;-74
2023/01/17 09:57:39;;;;;;;1.90;1.60;;;3.30;15.50;;;;;;5035462;28;20402;-73
2023/01/17 10:00:30;;;;;;;6.00;2.13;;;3.30;13.10;;;;;;5035427;28;20410;-74
2023/01/17 10:03:02;;;;;;;5.90;2.03;;;3.40;12.00;;;;;;5034290;28;20446;-74
2023/01/17 10:05:33;;;;;;;6.30;1.57;;;3.40;2.90;;;;;;5033827;28;20450;-73
2023/01/17 10:08:35;;;;;;;5.47;2.00;;;3.50;1.00;;;;;;5033736;28;20453;-74
2023/01/17 10:11:32;;;;;;;1.67;1.57;;;3.60;1.00;;;;;;5034001;28;20918;-73
2023/01/17 10:14:14;;;;;;;10.93;2.27;;;3.60;1.00;;;;;;5033882;28;20409;-73
2023/01/17 10:16:43;;;;;;;1.60;1.50;;;3.70;1.00;;;;;;5033465;28;20414;-74
2023/01/17 10:19:22;;;;;;;2.17;1.70;;;3.80;1.00;;;;;;5035165;28;20430;-73
2023/01/17 10:21:57;;;;;;;5.73;1.70;;;3.90;1.00;;;;;;5035109;28;20408;-73
2023/01/17 10:24:51;;;;;;;2.90;1.50;;;4.10;1.00;;;;;;5031293;28;20523;-73
2023/01/17 10:27:28;;;;;;;3.73;1.40;;;4.20;1.00;;;;;;5033527;28;20911;-74
2023/01/17 10:29:54;;;;;;;1.23;1.13;;;4.30;1.00;;;;;;5034896;28;20405;-73
2023/01/17 10:32:23;;;;;;;4.77;2.07;;;4.40;1.00;;;;;;5033622;28;20422;-73
2023/01/17 10:34:51;;;;;;;10.13;1.67;;;4.40;1.00;;;;;;5034092;28;20431;-73
2023/01/17 10:37:40;;;;;;;2.60;1.50;;;4.50;1.00;;;;;;5034529;28;20787;-73
2023/01/17 10:40:23;;;;;;;5.63;2.50;;;4.60;1.00;;;;;;5034080;28;20420;-74
2023/01/17 10:43:18;;;;;;;1.40;1.30;;;4.70;1.00;;;;;;5034059;28;20402;-73
2023/01/17 10:45:55;;;;;;;3.60;1.50;;;4.70;1.00;;;;;;5046583;28;20545;-73
2023/01/17 10:48:40;;;;;;;6.57;2.07;;;4.70;1.00;;;;;;5054633;28;20421;-73
2023/01/17 10:51:42;;;;;;;12.83;2.47;;;4.80;1.00;;;;;;5037043;28;20454;-72
2023/01/17 10:54:42;;;;;;;2.17;1.43;;;4.80;1.00;;;;;;5034069;28;20533;-72
2023/01/17 10:57:38;;;;;;;1.70;1.50;;;4.90;1.00;;;;;;5034483;28;20420;-73
2023/01/17 11:00:19;;;;;;;1.67;1.57;;;4.90;1.00;;;;;;5039987;28;20505;-73
2023/01/17 11:02:49;;;;;;;4.87;1.90;;;5.00;1.00;;;;;;5053211;28;20759;-71
2023/01/17 11:05:27;;;;;;;3.20;1.50;;;5.00;1.00;;;;;;5044922;28;20466;-72
2023/01/17 11:08:00;;;;;;;4.20;1.80;;;5.00;1.00;;;;;;5038573;28;20823;-71
2023/01/17 11:10:39;;;;;;;3.50;2.00;;;5.00;99.90;;;;;;5053785;28;20505;-72
2023/01/17 11:13:25;;;;;;;1.40;1.30;;;5.00;99.90;;;;;;5048191;28;20529;-72
2023/01/17 11:16:01;;;;;;;2.20;1.70;;;4.90;99.90;;;;;;5032770;28;20963;-71
2023/01/17 11:18:30;;;;;;;1.77;1.40;;;4.90;99.90;;;;;;5040445;28;20471;-72
2023/01/17 11:21:10;;;;;;;3.80;1.93;;;4.80;99.90;;;;;;5053849;28;20411;-72
2023/01/17 11:23:39;;;;;;;4.77;2.00;;;4.90;99.90;;;;;;5044557;28;20423;-72
2023/01/17 11:26:07;;;;;;;1.43;1.33;;;4.80;99.90;;;;;;5032712;28;20455;-71
2023/01/17 11:28:35;;;;;;;2.00;1.80;;;4.80;99.90;;;;;;5041536;28;20414;-71
2023/01/17 11:31:20;;;;;;;3.53;1.73;;;4.90;99.90;;;;;;5049214;28;20958;-71
2023/01/17 11:33:52;;;;;;;1.67;1.57;;;4.90;99.90;;;;;;5042414;28;20424;-71
2023/01/17 11:36:27;;;;;;;2.13;1.87;;;4.90;99.90;;;;;;5050693;28;20429;-71
2023/01/17 11:39:02;;;;;;;2.60;1.87;;;5.10;99.90;;;;;;5052993;28;20901;-72
2023/01/17 11:41:32;;;;;;;10.43;2.20;;;5.20;99.90;;;;;;5047375;28;20778;-70
2023/01/17 11:43:59;;;;;;;1.93;1.67;;;5.20;99.90;;;;;;5031970;28;20418;-71
2023/01/17 11:46:29;;;;;;;3.80;1.80;;;5.40;99.90;;;;;;5032606;28;20458;-71
2023/01/17 11:48:58;;;;;;;2.83;2.17;;;5.40;99.90;;;;;;5046578;28;20767;-71
2023/01/17 11:51:38;;;;;;;1.77;1.23;;;5.50;99.90;;;;;;5047867;28;20414;-70
2023/01/17 11:54:20;;;;;;;8.40;1.83;;;5.40;99.90;;;;;;5032994;28;20496;-70
2023/01/17 11:56:46;;;;;;;5.80;1.37;;;5.40;99.90;;;;;;5040359;28;20452;-71
2023/01/17 11:59:23;;;;;;;3.93;1.80;;;5.30;99.90;;;;;;5053474;28;20394;-70
2023/01/17 12:02:03;;;;;;;8.00;1.77;;;5.10;99.90;;;;;;5045449;28;20178;-71
2023/01/17 12:04:46;;;;;;;4.93;1.67;;;5.00;99.90;;;;;;5031152;28;20458;-70
2023/01/17 12:07:42;;;;;;;4.70;1.43;;;5.00;99.90;;;;;;5042009;28;20494;-70
2023/01/17 12:10:28;;;;;;;1.50;1.30;;;5.10;99.90;;;;;;5053032;28;20399;-70
2023/01/17 12:15:52;;;;;;;1.53;1.43;;;5.10;99.90;;;;;;5032198;28;20929;-73
2023/01/17 12:18:30;;;;;;;3.30;1.40;;;4.60;99.90;;;;;;5050690;28;20812;-72
2023/01/17 12:21:14;;;;;;;3.57;1.37;;;4.10;99.90;;;;;;5049386;28;20906;-71
2023/01/17 12:24:01;;;;;;;6.23;2.10;;;4.00;99.90;;;;;;5031792;28;20438;-70
2023/01/17 12:26:34;;;;;;;1.60;1.50;;;4.00;99.90;;;;;;5036297;28;20453;-69
2023/01/17 12:29:50;;;;;;;7.00;2.37;;;4.00;99.90;;;;;;5050333;28;20910;-69
2023/01/17 12:32:37;;;;;;;3.83;1.47;;;4.00;99.90;;;;;;5039591;28;20477;-70
2023/01/17 12:35:12;;;;;;;1.40;1.30;;;4.10;99.90;;;;;;5040067;28;20948;-70
2023/01/17 12:37:41;;;;;;;5.17;1.77;;;4.30;99.90;;;;;;5032890;28;20448;-70
2023/01/17 12:40:19;;;;;;;2.30;1.70;;;4.40;99.90;;;;;;5032859;28;20414;-71
2023/01/17 12:42:57;;;;;;;1.23;1.13;;;4.10;99.90;;;;;;5032758;28;20899;-69
2023/01/17 12:45:30;;;;;;;2.00;1.80;;;3.90;99.90;;;;;;5045655;28;20902;-70
2023/01/17 12:48:21;;;;;;;1.57;1.47;;;3.70;99.90;;;;;;5054616;28;20405;-70
2023/01/17 12:51:04;;;;;;;3.73;1.77;;;3.50;99.90;;;;;;5048725;28;20430;-70
2023/01/17 12:53:49;;;;;;;2.00;1.70;;;3.30;99.90;;;;;;5036648;28;20414;-71
2023/01/17 12:57:00;;;;;;;3.00;1.60;;;3.30;99.90;;;;;;5035653;28;20505;-70
2023/01/17 12:59:39;;;;;;;1.80;1.20;;;3.30;99.90;;;;;;5042113;28;20421;-69
2023/01/17 13:02:37;;;;;;;2.30;1.43;;;3.30;99.90;;;;;;5055219;28;20496;-70
2023/01/17 13:05:26;;;;;;;1.50;1.40;;;3.20;99.90;;;;;;5040415;28;21026;-72
2023/01/17 13:08:18;;;;;;;1.97;1.83;;;3.10;99.90;;;;;;5036550;28;20410;-70
2023/01/17 13:11:01;;;;;;;1.33;1.23;;;3.20;99.90;;;;;;5041303;28;20421;-69
2023/01/17 13:13:28;;;;;;;2.33;1.57;;;3.20;99.90;;;;;;5036122;28;20424;-70
2023/01/17 13:16:10;;;;;;;1.47;1.37;;;3.20;99.90;;;;;;5034061;28;20434;-70
2023/01/17 13:18:41;;;;;;;5.70;1.63;;;3.20;99.90;;;;;;5036375;28;20476;-69
2023/01/17 13:21:10;;;;;;;2.90;2.00;;;3.30;99.90;;;;;;5047243;28;20422;-69
2023/01/17 13:24:00;;;;;;;2.10;1.90;;;3.40;99.90;;;;;;5035886;28;20402;-69
2023/01/17 13:26:48;;;;;;;1.77;1.67;;;3.40;99.90;;;;;;5037087;28;20449;-70
2023/01/17 13:29:35;;;;;;;1.60;1.50;;;3.40;99.90;;;;;;5056003;28;20451;-71
2023/01/17 13:32:15;;;;;;;4.10;2.30;;;3.50;99.90;;;;;;5038914;28;20929;-71
2023/01/17 13:34:41;;;;;;;1.97;1.70;;;3.80;99.90;;;;;;5034883;28;20432;-71
2023/01/17 13:37:50;;;;;;;11.63;1.80;;;3.80;99.90;;;;;;5054811;28;20536;-70
2023/01/17 13:40:42;;;;;;;1.87;1.60;;;3.60;99.90;;;;;;5037613;28;20256;-71
2023/01/17 13:43:22;;;;;;;1.67;1.57;;;3.30;99.90;;;;;;5054790;28;20429;-71
2023/01/17 13:45:53;;;;;;;1.67;1.57;;;2.90;99.90;;;;;;5040899;28;20469;-73
2023/01/17 13:48:19;;;;;;;1.63;1.53;;;2.70;99.90;;;;;;5035729;28;20414;-73
2023/01/17 13:51:00;;;;;;;1.70;1.60;;;2.70;99.90;;;;;;5035570;28;20422;-73
2023/01/17 13:53:38;;;;;;;1.87;1.77;;;2.70;99.90;;;;;;5035569;28;20434;-73
2023/01/17 13:56:27;;;;;;;2.63;1.80;;;2.80;99.90;;;;;;5033775;28;20433;-71
2023/01/17 13:58:54;;;;;;;3.33;1.90;;;2.90;99.90;;;;;;5035110;28;20419;-72
2023/01/17 14:01:23;;;;;;;2.23;2.07;;;2.90;99.90;;;;;;5034024;28;20419;-73
2023/01/17 14:03:51;;;;;;;1.73;1.63;;;2.80;99.90;;;;;;5034153;28;21045;-73
2023/01/17 14:06:35;;;;;;;5.70;1.93;;;2.70;99.90;;;;;;5034297;28;20461;-73
2023/01/17 14:09:25;;;;;;;1.40;1.30;;;2.60;99.90;;;;;;5035309;28;20871;-73
2023/01/17 14:11:53;;;;;;;2.30;1.77;;;2.60;99.90;;;;;;5034613;28;20434;-73
2023/01/17 14:14:44;;;;;;;1.63;1.53;;;2.50;99.90;;;;;;5034488;28;20832;-74
2023/01/17 14:17:25;;;;;;;1.85;1.75;;;2.40;99.90;;;;;;5035104;28;20413;-74
2023/01/17 14:19:52;;;;;;;3.40;2.00;;;2.30;99.90;;;;;;5035195;28;20160;-74
2023/01/17 14:22:18;;;;;;;4.72;2.63;;;2.30;99.90;;;;;;5034640;28;20422;-74
2023/01/17 14:25:13;;;;;;;2.70;1.80;;;2.30;99.90;;;;;;5033980;28;20634;-73
2023/01/17 14:27:42;;;;;;;6.00;2.13;;;2.40;99.90;;;;;;5035125;28;20160;-74
2023/01/17 14:30:35;;;;;;;3.50;1.90;;;2.30;99.90;;;;;;5034869;28;20430;-74
2023/01/17 14:33:01;;;;;;;1.47;1.37;;;2.40;99.90;;;;;;5034592;28;20433;-71
2023/01/17 14:35:29;;;;;;;2.07;1.70;;;2.40;99.90;;;;;;5034080;28;20943;-74
2023/01/17 14:38:04;;;;;;;1.90;1.45;;;2.30;99.90;;;;;;5034715;28;20445;-73
2023/01/17 14:40:32;;;;;;;2.40;1.70;;;2.20;99.90;;;;;;5034865;28;20175;-73
2023/01/17 14:43:01;;;;;;;2.20;2.10;;;2.20;99.90;;;;;;5032910;28;20407;-73
2023/01/17 14:45:30;;;;;;;4.90;2.50;;;2.20;99.90;;;;;;5033680;28;20454;-72
2023/01/17 14:47:58;;;;;;;1.50;1.40;;;2.20;99.90;;;;;;5034545;28;20421;-73
2023/01/17 14:50:25;;;;;;;1.87;1.77;;;2.20;99.90;;;;;;5034587;28;20394;-73
2023/01/17 14:53:12;;;;;;;1.50;1.40;;;2.30;99.90;;;;;;5034463;28;20398;-73